| time (UTC) | temp C | wind direction | speed KPH | gust KPH | rain 1hr cm | rain 24hr cm | rain mn cm | humidity % | barometer mb |
| 20260906224605 | 19 | 295 | 17.7 | 30.6 | 0.00 | 0.00 | 0.00 | 64 | 1014.4 |
| 20260906223049 | 19 | 298 | 20.9 | 27.4 | 0.00 | 0.00 | 0.00 | 64 | 1014.6 |
| 20260906221557 | 19 | 293 | 17.7 | 22.5 | 0.00 | 0.00 | 0.00 | 64 | 1014.6 |
| 20260906220046 | 19 | 315 | 11.3 | 22.5 | 0.00 | 0.00 | 0.00 | 64 | 1014.5 |
| 20260906214544 | 19 | 294 | 14.5 | 24.1 | 0.00 | 0.00 | 0.00 | 66 | 1014.4 |
| 20260906213050 | 18 | 302 | 6.4 | 19.3 | 0.00 | 0.00 | 0.00 | 67 | 1014.5 |
| 20260906211552 | 18 | 291 | 4.8 | 16.1 | 0.00 | 0.00 | 0.00 | 67 | 1014.6 |
| 20260906210048 | 18 | 352 | 9.7 | 14.5 | 0.00 | 0.00 | 0.00 | 69 | 1015.1 |
| 20260906204543 | 18 | 293 | 4.8 | 12.9 | 0.00 | 0.00 | 0.00 | 71 | 1015.2 |
| 20260906203050 | 18 | 290 | 6.4 | 16.1 | 0.00 | 0.00 | 0.00 | 72 | 1015.2 |
| 20260906201559 | 17 | 51 | 4.8 | 14.5 | 0.00 | 0.00 | 0.00 | 76 | 1015.4 |
| 20260906200045 | 16 | 15 | 9.7 | 16.1 | 0.00 | 0.00 | 0.00 | 75 | 1015.7 |
| 20260906194543 | 16 | 54 | 12.9 | 24.1 | 0.00 | 0.00 | 0.00 | 77 | 1015.7 |
| 20260906193048 | 16 | 54 | 20.9 | 27.4 | 0.00 | 0.00 | 0.00 | 78 | 1015.7 |
| 20260906191545 | 15 | 22 | 22.5 | 25.7 | 0.00 | 0.00 | 0.00 | 81 | 1015.9 |
| 20260906190047 | 15 | 46 | 19.3 | 29.0 | 0.00 | 0.00 | 0.00 | 83 | 1016.1 |
| 20260906184546 | 14 | 24 | 17.7 | 24.1 | 0.00 | 0.00 | 0.00 | 87 | 1016.3 |
| 20260906183111 | 15 | 41 | 19.3 | 25.7 | 0.00 | 0.00 | 0.00 | 88 | 1016.4 |
| 20260906181551 | 15 | 41 | 9.7 | 22.5 | 0.00 | 0.00 | 0.00 | 86 | 1016.6 |
| 20260906174556 | 14 | 323 | 17.7 | 20.9 | 0.00 | 0.00 | 0.00 | 84 | 1017.1 |
| 20260906173049 | 14 | 298 | 12.9 | 22.5 | 0.00 | 0.00 | 0.00 | 84 | 1017.3 |
| 20260906171546 | 13 | 294 | 20.9 | 32.2 | 0.00 | 0.00 | 0.00 | 84 | 1017.3 |
| 20260906170045 | 13 | 296 | 29.0 | 38.6 | 0.00 | 0.00 | 0.00 | 84 | 1017.2 |
| 20260906164544 | 13 | 303 | 29.0 | 37.0 | 0.00 | 0.00 | 0.00 | 84 | 1017.2 |
| 20260906163049 | 13 | 292 | 29.0 | 37.0 | 0.00 | 0.00 | 0.00 | 83 | 1017.4 |
| 20260906161549 | 13 | 288 | 25.7 | 33.8 | 0.00 | 0.00 | 0.00 | 82 | 1017.6 |
| 20260906160045 | 13 | 294 | 24.1 | 32.2 | 0.00 | 0.00 | 0.00 | 82 | 1017.9 |
| 20260906154552 | 14 | 301 | 20.9 | 29.0 | 0.00 | 0.00 | 0.00 | 82 | 1018.0 |
| 20260906153046 | 15 | 288 | 14.5 | 25.7 | 0.00 | 0.00 | 0.00 | 82 | 1017.7 |
| 20260906151546 | 15 | 318 | 1.6 | 6.4 | 0.00 | 0.00 | 0.00 | 83 | 1017.9 |
| 20260906150056 | 15 | 290 | 1.6 | 3.2 | 0.00 | 0.00 | 0.00 | 84 | 1018.4 |
| 20260906144554 | 15 | 290 | 1.6 | 3.2 | 0.00 | 0.00 | 0.00 | 83 | 1018.4 |
| 20260906143050 | 15 | 63 | 4.8 | 16.1 | 0.00 | 0.00 | 0.00 | 83 | 1018.3 |
| 20260906141549 | 15 | 67 | 16.1 | 20.9 | 0.00 | 0.00 | 0.00 | 83 | 1017.7 |
| 20260906140044 | 15 | 13 | 8.0 | 19.3 | 0.00 | 0.00 | 0.00 | 83 | 1018.2 |
| 20260906134545 | 14 | 36 | 12.9 | 19.3 | 0.00 | 0.00 | 0.00 | 83 | 1018.0 |
| 20260906133048 | 14 | 36 | 14.5 | 20.9 | 0.00 | 0.00 | 0.00 | 83 | 1018.0 |
| 20260906131546 | 14 | 34 | 12.9 | 17.7 | 0.00 | 0.00 | 0.00 | 83 | 1018.2 |
| 20260906130051 | 13 | 42 | 9.7 | 16.1 | 0.00 | 0.00 | 0.00 | 84 | 1018.0 |
| 20260906124550 | 13 | 36 | 16.1 | 20.9 | 0.00 | 0.00 | 0.00 | 84 | 1018.0 |
| 20260906123047 | 13 | 13 | 14.5 | 19.3 | 0.00 | 0.00 | 0.00 | 84 | 1018.3 |
| 20260906121545 | 13 | 36 | 14.5 | 22.5 | 0.00 | 0.00 | 0.00 | 85 | 1017.5 |
| 20260906120044 | 13 | 24 | 16.1 | 22.5 | 0.00 | 0.00 | 0.00 | 85 | 1017.5 |
| 20260906114557 | 13 | 28 | 14.5 | 19.3 | 0.00 | 0.00 | 0.00 | 85 | 1017.7 |
| 20260906113055 | 13 | 352 | 12.9 | 19.3 | 0.00 | 0.00 | 0.00 | 85 | 1017.6 |
| 20260906111545 | 13 | 32 | 12.9 | 22.5 | 0.00 | 0.00 | 0.00 | 84 | 1017.5 |
| 20260906110044 | 13 | 19 | 17.7 | 25.7 | 0.00 | 0.00 | 0.00 | 84 | 1017.6 |
| 20260906104548 | 13 | 352 | 17.7 | 22.5 | 0.00 | 0.00 | 0.00 | 84 | 1017.6 |
| 20260906103047 | 13 | 348 | 14.5 | 24.1 | 0.00 | 0.00 | 0.00 | 83 | 1017.8 |
| 20260906101544 | 13 | 9 | 16.1 | 25.7 | 0.00 | 0.00 | 0.00 | 83 | 1018.1 |
| 20260906100050 | 13 | 18 | 19.3 | 27.4 | 0.00 | 0.00 | 0.00 | 84 | 1018.0 |
| 20260906094547 | 12 | 18 | 20.9 | 27.4 | 0.00 | 0.00 | 0.00 | 84 | 1017.7 |
| 20260906093046 | 12 | 17 | 24.1 | 30.6 | 0.00 | 0.00 | 0.00 | 84 | 1017.5 |
| 20260906091546 | 12 | 352 | 17.7 | 24.1 | 0.00 | 0.00 | 0.00 | 83 | 1017.6 |
| 20260906090045 | 12 | 5 | 17.7 | 27.4 | 0.00 | 0.00 | 0.00 | 82 | 1017.8 |
| 20260906084547 | 13 | 31 | 17.7 | 24.1 | 0.00 | 0.00 | 0.00 | 81 | 1017.8 |
| 20260906083048 | 13 | 5 | 16.1 | 25.7 | 0.00 | 0.00 | 0.00 | 80 | 1018.0 |
| 20260906081551 | 13 | 352 | 14.5 | 22.5 | 0.00 | 0.00 | 0.00 | 80 | 1018.5 |
| 20260906080044 | 13 | 14 | 16.1 | 20.9 | 0.00 | 0.00 | 0.00 | 79 | 1018.7 |
| 20260906074557 | 13 | 23 | 16.1 | 20.9 | 0.00 | 0.00 | 0.00 | 78 | 1019.0 |
| 20260906073047 | 14 | 13 | 17.7 | 24.1 | 0.00 | 0.00 | 0.00 | 77 | 1019.1 |
| 20260906071545 | 14 | 22 | 20.9 | 30.6 | 0.00 | 0.00 | 0.00 | 76 | 1019.2 |
| 20260906070046 | 14 | 15 | 17.7 | 27.4 | 0.00 | 0.00 | 0.00 | 76 | 1019.1 |
| 20260906064548 | 14 | 17 | 22.5 | 30.6 | 0.00 | 0.00 | 0.00 | 75 | 1019.2 |
| 20260906063048 | 14 | 21 | 20.9 | 30.6 | 0.00 | 0.00 | 0.00 | 75 | 1019.2 |
| 20260906061545 | 15 | 14 | 24.1 | 32.2 | 0.00 | 0.00 | 0.00 | 74 | 1019.2 |
| 20260906060045 | 15 | 360 | 20.9 | 32.2 | 0.00 | 0.00 | 0.00 | 73 | 1019.2 |
| 20260906054548 | 15 | 14 | 24.1 | 32.2 | 0.00 | 0.00 | 0.00 | 72 | 1019.0 |
| 20260906053048 | 15 | 24 | 25.7 | 33.8 | 0.00 | 0.00 | 0.00 | 70 | 1019.1 |
| 20260906051558 | 15 | 24 | 24.1 | 30.6 | 0.00 | 0.00 | 0.00 | 69 | 1018.7 |
| 20260906050052 | 15 | 19 | 19.3 | 25.7 | 0.00 | 0.00 | 0.00 | 69 | 1018.7 |
| 20260906044551 | 15 | 5 | 17.7 | 25.7 | 0.00 | 0.00 | 0.00 | 69 | 1018.7 |
| 20260906043045 | 15 | 10 | 20.9 | 30.6 | 0.00 | 0.00 | 0.00 | 69 | 1018.5 |
| 20260906041546 | 15 | 35 | 19.3 | 27.4 | 0.00 | 0.00 | 0.00 | 68 | 1017.9 |
| 20260906040047 | 15 | 352 | 20.9 | 27.4 | 0.00 | 0.00 | 0.00 | 67 | 1017.9 |
| 20260906034547 | 15 | 352 | 24.1 | 33.8 | 0.00 | 0.00 | 0.00 | 66 | 1018.0 |
| 20260906033051 | 15 | 34 | 17.7 | 30.6 | 0.00 | 0.00 | 0.00 | 66 | 1018.0 |
| 20260906031555 | 16 | 38 | 19.3 | 30.6 | 0.00 | 0.00 | 0.00 | 65 | 1017.9 |
| 20260906030049 | 16 | 46 | 20.9 | 30.6 | 0.00 | 0.00 | 0.00 | 64 | 1017.8 |
| 20260906024546 | 16 | 52 | 27.4 | 37.0 | 0.00 | 0.00 | 0.00 | 63 | 1017.3 |
| 20260906023044 | 17 | 41 | 27.4 | 45.1 | 0.00 | 0.00 | 0.00 | 61 | 1016.9 |
| 20260906021545 | 17 | 46 | 27.4 | 45.1 | 0.00 | 0.00 | 0.00 | 58 | 1016.8 |
| 20260906020051 | 18 | 26 | 29.0 | 40.2 | 0.00 | 0.00 | 0.00 | 55 | 1016.7 |
| 20260906014543 | 20 | 28 | 29.0 | 43.5 | 0.00 | 0.00 | 0.00 | 50 | 1016.7 |
| 20260906013049 | 22 | 15 | 16.1 | 32.2 | 0.00 | 0.00 | 0.00 | 38 | 1016.4 |
| 20260906011550 | 22 | 45 | 22.5 | 33.8 | 0.00 | 0.00 | 0.00 | 36 | 1016.4 |
| 20260906010047 | 23 | 36 | 24.1 | 33.8 | 0.00 | 0.00 | 0.00 | 35 | 1016.3 |
| 20260906004541 | 23 | 51 | 27.4 | 35.4 | 0.00 | 0.00 | 0.00 | 34 | 1016.2 |
| 20260906003043 | 24 | 39 | 24.1 | 32.2 | 0.00 | 0.00 | 0.00 | 34 | 1016.3 |
| 20260906001547 | 24 | 72 | 20.9 | 27.4 | 0.00 | 0.00 | 0.00 | 33 | 1016.6 |
| 20260906000046 | 24 | 28 | 17.7 | 25.7 | 0.00 | 0.00 | 0.00 | 33 | 1016.7 |
| 20260905234544 | 25 | 29 | 17.7 | 27.4 | 0.00 | 0.00 | 0.00 | 32 | 1016.4 |
| 20260905233050 | 24 | 50 | 19.3 | 30.6 | 0.00 | 0.00 | 0.00 | 32 | 1016.3 |
| 20260905231546 | 24 | 67 | 16.1 | 29.0 | 0.00 | 0.00 | 0.00 | 32 | 1016.4 |
| 20260905230052 | 24 | 52 | 14.5 | 24.1 | 0.00 | 0.00 | 0.00 | 33 | 1016.5 |